Time;durP1;ratioP1;P1;durP2;ratioP2;P2;SDS_P1;SDS_P2;PMS_P1;PMS_P2;Temp;Humidity;BMP_temperature;BMP_pressure;BME280_temperature;BME280_humidity;BME280_pressure;Samples;Min_cycle;Max_cycle;Signal;HPM_P1;HPM_P2
2022/08/11 00:01:22;;;;;;;9.85;7.40;;;;;;;;;;5083118;28;20947;-78
2022/08/11 00:03:50;;;;;;;13.85;8.48;;;;;;;;;;5085673;28;20036;-78
2022/08/11 00:06:23;;;;;;;10.27;7.97;;;;;;;;;;5079901;28;20024;-78
2022/08/11 00:08:50;;;;;;;10.65;7.97;;;;;;;;;;5081443;28;20054;-78
2022/08/11 00:11:16;;;;;;;10.52;6.85;;;;;;;;;;5082907;28;20115;-78
2022/08/11 00:13:44;;;;;;;8.48;6.78;;;;;;;;;;5080655;28;20047;-78
2022/08/11 00:16:18;;;;;;;11.65;7.22;;;;;;;;;;5088209;28;20028;-78
2022/08/11 00:18:47;;;;;;;10.35;6.78;;;;;;;;;;5086128;28;20028;-79
2022/08/11 00:21:13;;;;;;;9.43;6.90;;;;;;;;;;5083177;28;20093;-78
2022/08/11 00:23:41;;;;;;;10.23;6.57;;;;;;;;;;5084944;28;20039;-78
2022/08/11 00:26:07;;;;;;;8.68;6.32;;;;;;;;;;5074493;28;20024;-78
2022/08/11 00:28:34;;;;;;;12.07;7.40;;;;;;;;;;5070942;28;20819;-78
2022/08/11 00:31:05;;;;;;;8.18;6.00;;;;;;;;;;5079665;28;20674;-78
2022/08/11 00:33:33;;;;;;;10.30;6.57;;;;;;;;;;5082232;28;20088;-78
2022/08/11 00:36:00;;;;;;;8.63;6.60;;;;;;;;;;5080091;28;20077;-78
2022/08/11 00:38:29;;;;;;;8.30;6.32;;;;;;;;;;5087220;28;20036;-78
2022/08/11 00:40:59;;;;;;;9.13;6.18;;;;;;;;;;5080536;28;20078;-78
2022/08/11 00:43:41;;;;;;;9.90;5.95;;;;;;;;;;5089025;28;20035;-78
2022/08/11 00:46:07;;;;;;;7.70;5.55;;;;;;;;;;5093606;28;20031;-78
2022/08/11 00:48:42;;;;;;;6.35;5.03;;;;;;;;;;5073216;28;20434;-78
2022/08/11 00:51:26;;;;;;;8.35;5.22;;;;;;;;;;5081986;28;20091;-78
2022/08/11 00:54:01;;;;;;;9.73;5.68;;;;;;;;;;5074981;28;20051;-78
2022/08/11 00:56:27;;;;;;;7.32;6.13;;;;;;;;;;5072319;28;20062;-78
2022/08/11 00:58:56;;;;;;;8.60;6.45;;;;;;;;;;5082953;28;20028;-78
2022/08/11 01:01:38;;;;;;;11.35;7.13;;;;;;;;;;5085085;28;20539;-78
2022/08/11 01:04:07;;;;;;;12.43;7.22;;;;;;;;;;5086750;28;20035;-78
2022/08/11 01:06:33;;;;;;;13.10;6.70;;;;;;;;;;5075155;28;20040;-78
2022/08/11 01:09:18;;;;;;;11.13;7.22;;;;;;;;;;5081435;28;20032;-78
2022/08/11 01:11:47;;;;;;;10.38;6.30;;;;;;;;;;5077369;28;20509;-79
2022/08/11 01:14:39;;;;;;;9.07;6.15;;;;;;;;;;5081675;28;20037;-78
2022/08/11 01:17:13;;;;;;;9.15;6.53;;;;;;;;;;5088839;28;20043;-79
2022/08/11 01:19:45;;;;;;;15.07;6.55;;;;;;;;;;5093266;28;20056;-78
2022/08/11 01:22:11;;;;;;;;;;;;;;;;;;5079300;28;20032;-78
2022/08/11 01:24:56;;;;;;;10.23;6.93;;;;;;;;;;5084504;28;19928;-78
2022/08/11 01:27:31;;;;;;;12.68;7.00;;;;;;;;;;5085300;28;20065;-79
2022/08/11 01:30:15;;;;;;;11.85;7.20;;;;;;;;;;5088540;28;20190;-78
2022/08/11 01:32:44;;;;;;;13.45;7.38;;;;;;;;;;5076305;28;20026;-79
2022/08/11 01:35:16;;;;;;;12.00;7.28;;;;;;;;;;5092268;28;20035;-78
2022/08/11 01:37:57;;;;;;;10.48;6.22;;;;;;;;;;5078629;28;20040;-78
2022/08/11 01:40:23;;;;;;;9.25;6.70;;;;;;;;;;5082440;28;20125;-78
2022/08/11 01:46:07;;;;;;;8.55;5.78;;;;;;;;;;5087708;28;20729;-78
2022/08/11 01:48:39;;;;;;;9.70;5.57;;;;;;;;;;5080301;28;20032;-78
2022/08/11 01:51:24;;;;;;;10.02;6.03;;;;;;;;;;5082894;28;20047;-78
2022/08/11 01:53:58;;;;;;;10.55;6.70;;;;;;;;;;5086933;28;20032;-78
2022/08/11 01:56:47;;;;;;;9.75;6.75;;;;;;;;;;5089443;28;20405;-78
2022/08/11 01:59:32;;;;;;;9.57;5.70;;;;;;;;;;5077592;28;20405;-78
2022/08/11 02:02:04;;;;;;;9.05;6.53;;;;;;;;;;5092814;28;20119;-78
2022/08/11 02:04:35;;;;;;;11.50;6.35;;;;;;;;;;5083719;28;20036;-78
2022/08/11 02:07:25;;;;;;;10.23;6.68;;;;;;;;;;5082338;28;20370;-78
2022/08/11 02:13:00;;;;;;;8.18;5.90;;;;;;;;;;5074408;28;20047;-78
2022/08/11 02:15:33;;;;;;;8.07;5.80;;;;;;;;;;5086420;28;20032;-78
2022/08/11 02:18:10;;;;;;;8.07;5.65;;;;;;;;;;5081812;28;20052;-78
2022/08/11 02:23:38;;;;;;;8.95;5.90;;;;;;;;;;5074978;28;20443;-78
2022/08/11 02:26:07;;;;;;;8.43;6.55;;;;;;;;;;5087515;28;20476;-78
2022/08/11 02:28:42;;;;;;;13.52;6.60;;;;;;;;;;5086844;28;20039;-78
2022/08/11 02:34:05;;;;;;;8.70;6.45;;;;;;;;;;5080648;28;20055;-78
2022/08/11 02:36:42;;;;;;;12.75;6.40;;;;;;;;;;5057117;28;20052;-78
2022/08/11 02:39:10;;;;;;;9.43;6.60;;;;;;;;;;5081568;28;20067;-78
2022/08/11 02:44:34;;;;;;;10.40;6.43;;;;;;;;;;5085603;28;20089;-78
2022/08/11 02:47:06;;;;;;;9.75;6.63;;;;;;;;;;5086828;28;20157;-78
2022/08/11 02:49:54;;;;;;;12.45;6.80;;;;;;;;;;5086375;28;20039;-78
2022/08/11 02:52:25;;;;;;;7.95;6.30;;;;;;;;;;5076283;28;20450;-78
2022/08/11 02:54:54;;;;;;;10.13;6.32;;;;;;;;;;5074430;28;20060;-78
2022/08/11 02:57:22;;;;;;;12.18;6.57;;;;;;;;;;5083528;28;20028;-78
2022/08/11 02:59:57;;;;;;;8.68;6.65;;;;;;;;;;5075201;28;20044;-78
2022/08/11 03:02:30;;;;;;;9.13;6.38;;;;;;;;;;5076323;28;20063;-78
2022/08/11 03:05:02;;;;;;;8.88;6.53;;;;;;;;;;5081435;28;20041;-78
2022/08/11 03:07:30;;;;;;;12.60;6.60;;;;;;;;;;5074993;28;20032;-78
2022/08/11 03:10:14;;;;;;;10.70;6.43;;;;;;;;;;5078237;28;20032;-78
2022/08/11 03:18:26;;;;;;;7.75;5.57;;;;;;;;;;5088672;28;20066;-78
2022/08/11 03:21:11;;;;;;;8.65;5.68;;;;;;;;;;5053438;28;20102;-78
2022/08/11 03:23:41;;;;;;;9.10;5.80;;;;;;;;;;5070429;28;20040;-78
2022/08/11 03:26:25;;;;;;;8.07;5.57;;;;;;;;;;5081493;28;20112;-78
2022/08/11 03:29:03;;;;;;;6.88;5.90;;;;;;;;;;5081297;28;20037;-78
2022/08/11 03:31:35;;;;;;;6.97;5.38;;;;;;;;;;5075160;28;20037;-78
2022/08/11 03:34:10;;;;;;;8.20;6.07;;;;;;;;;;5078801;28;20028;-78
2022/08/11 03:36:36;;;;;;;9.02;6.07;;;;;;;;;;5088328;28;20099;-77
2022/08/11 03:39:05;;;;;;;8.35;5.97;;;;;;;;;;5084060;28;20150;-78
2022/08/11 03:41:55;;;;;;;8.90;5.78;;;;;;;;;;5085622;28;20036;-78
2022/08/11 03:44:24;;;;;;;10.52;6.57;;;;;;;;;;5083939;28;20069;-78
2022/08/11 03:47:05;;;;;;;8.48;6.55;;;;;;;;;;5079160;28;20028;-78
2022/08/11 03:49:31;;;;;;;8.90;6.20;;;;;;;;;;5072577;28;20040;-78
2022/08/11 03:52:22;;;;;;;10.32;6.22;;;;;;;;;;5081419;28;20263;-78
2022/08/11 03:54:55;;;;;;;9.18;6.38;;;;;;;;;;5077315;28;20036;-78
2022/08/11 03:57:35;;;;;;;9.43;6.60;;;;;;;;;;5081082;28;20094;-78
2022/08/11 04:00:10;;;;;;;10.68;6.15;;;;;;;;;;5088703;28;20032;-78
2022/08/11 04:02:36;;;;;;;8.75;6.30;;;;;;;;;;5081316;28;20051;-78
2022/08/11 04:05:02;;;;;;;8.68;6.35;;;;;;;;;;5082586;28;20040;-78
2022/08/11 04:07:31;;;;;;;8.63;6.70;;;;;;;;;;5087110;28;20042;-78
2022/08/11 04:09:57;;;;;;;9.60;6.35;;;;;;;;;;5087211;28;20939;-78
2022/08/11 04:12:47;;;;;;;7.90;6.07;;;;;;;;;;5078369;28;20047;-78
2022/08/11 04:16:01;;;;;;;10.95;6.93;;;;;;;;;;5086615;28;20082;-78
2022/08/11 04:18:27;;;;;;;9.95;6.28;;;;;;;;;;5000292;28;20089;-78
2022/08/11 04:20:59;;;;;;;10.98;6.13;;;;;;;;;;5084996;28;20024;-78
2022/08/11 04:23:25;;;;;;;8.45;5.95;;;;;;;;;;5075680;28;20067;-78
2022/08/11 04:26:13;;;;;;;8.50;6.07;;;;;;;;;;5082539;28;20032;-78
2022/08/11 04:28:48;;;;;;;11.25;7.07;;;;;;;;;;5068826;28;20531;-77
2022/08/11 04:31:36;;;;;;;9.27;6.65;;;;;;;;;;5084793;28;20110;-77
2022/08/11 04:34:23;;;;;;;7.88;6.32;;;;;;;;;;5084605;28;20063;-78
2022/08/11 04:40:14;;;;;;;10.05;6.25;;;;;;;;;;5087271;28;20062;-78
2022/08/11 04:45:45;;;;;;;10.18;5.97;;;;;;;;;;5090775;28;20058;-78
2022/08/11 05:03:12;;;;;;;11.23;6.35;;;;;;;;;;5080028;28;20050;-78
2022/08/11 05:05:41;;;;;;;7.82;6.53;;;;;;;;;;5042234;28;20048;-78
2022/08/11 05:08:10;;;;;;;8.25;6.13;;;;;;;;;;5081050;28;20580;-78
2022/08/11 05:10:39;;;;;;;9.27;6.55;;;;;;;;;;5067244;28;20629;-78
2022/08/11 05:35:48;;;;;;;12.63;6.15;;;;;;;;;;5085357;28;20150;-78
2022/08/11 05:58:07;;;;;;;11.73;6.40;;;;;;;;;;5036378;28;20048;-78
2022/08/11 06:00:44;;;;;;;12.55;6.05;;;;;;;;;;5051594;28;20036;-78
2022/08/11 06:03:11;;;;;;;9.05;6.03;;;;;;;;;;5038839;28;20107;-78
2022/08/11 06:05:38;;;;;;;10.68;5.93;;;;;;;;;;5039455;28;20040;-78
2022/08/11 06:08:05;;;;;;;9.75;5.45;;;;;;;;;;5046311;28;20075;-78
2022/08/11 06:10:33;;;;;;;8.43;6.20;;;;;;;;;;5046557;28;20033;-78
2022/08/11 06:13:03;;;;;;;7.07;5.13;;;;;;;;;;5032226;28;20029;-78
2022/08/11 06:15:30;;;;;;;6.88;5.38;;;;;;;;;;5040414;28;20039;-78
2022/08/11 06:17:59;;;;;;;9.52;5.45;;;;;;;;;;5047131;28;20911;-78
2022/08/11 06:20:25;;;;;;;7.10;5.53;;;;;;;;;;5041871;28;20035;-78
2022/08/11 06:23:02;;;;;;;9.43;6.00;;;;;;;;;;5050580;28;20025;-78
2022/08/11 06:25:32;;;;;;;13.95;6.45;;;;;;;;;;5043525;28;20041;-78
2022/08/11 06:27:59;;;;;;;10.90;6.32;;;;;;;;;;5049293;28;20059;-78
2022/08/11 06:30:45;;;;;;;10.38;6.30;;;;;;;;;;5045781;28;20068;-78
2022/08/11 06:33:12;;;;;;;19.25;7.40;;;;;;;;;;5044861;28;20040;-78
2022/08/11 06:35:47;;;;;;;10.45;5.68;;;;;;;;;;5048620;28;20036;-78
2022/08/11 06:38:20;;;;;;;6.85;5.03;;;;;;;;;;5041199;28;20132;-78
2022/08/11 06:43:48;;;;;;;8.68;5.95;;;;;;;;;;5083812;28;20487;-78
2022/08/11 06:46:17;;;;;;;8.02;5.28;;;;;;;;;;5091266;28;20024;-78
2022/08/11 06:48:44;;;;;;;9.35;5.75;;;;;;;;;;5065278;28;20036;-78
2022/08/11 06:51:11;;;;;;;8.98;5.68;;;;;;;;;;5082831;28;20050;-78
2022/08/11 06:53:47;;;;;;;8.88;5.60;;;;;;;;;;5083951;28;20039;-77
2022/08/11 07:02:03;;;;;;;10.88;5.70;;;;;;;;;;5081438;28;20047;-78
2022/08/11 07:04:35;;;;;;;9.05;5.70;;;;;;;;;;5085947;28;20108;-78
2022/08/11 07:15:55;;;;;;;13.40;5.50;;;;;;;;;;5077176;28;20059;-78
2022/08/11 07:29:41;;;;;;;12.52;5.85;;;;;;;;;;5089086;28;20389;-78
2022/08/11 07:32:16;;;;;;;11.25;5.18;;;;;;;;;;5084876;28;20071;-78
2022/08/11 07:34:46;;;;;;;9.18;5.90;;;;;;;;;;5077583;28;20078;-78
2022/08/11 07:37:19;;;;;;;9.30;5.53;;;;;;;;;;5084959;28;20850;-78
2022/08/11 07:39:46;;;;;;;9.32;5.80;;;;;;;;;;5085925;28;20073;-78
2022/08/11 07:42:14;;;;;;;7.40;5.63;;;;;;;;;;5087287;28;20053;-78
2022/08/11 07:52:58;;;;;;;8.18;5.40;;;;;;;;;;5080805;28;20429;-78
2022/08/11 07:55:24;;;;;;;13.77;5.25;;;;;;;;;;5082840;28;20780;-78
2022/08/11 08:19:59;;;;;;;12.13;5.95;;;;;;;;;;5073624;28;20074;-78
2022/08/11 08:22:26;;;;;;;11.25;5.53;;;;;;;;;;5075956;28;20028;-78
2022/08/11 08:24:52;;;;;;;11.25;5.38;;;;;;;;;;5081008;28;20135;-78
2022/08/11 08:27:19;;;;;;;6.57;4.78;;;;;;;;;;5087460;28;20067;-78
2022/08/11 08:32:33;;;;;;;7.55;5.10;;;;;;;;;;5080073;28;20043;-78
2022/08/11 08:35:01;;;;;;;10.18;4.97;;;;;;;;;;5082879;28;20056;-78
2022/08/11 08:37:27;;;;;;;11.95;5.68;;;;;;;;;;5085268;28;20020;-78
2022/08/11 08:39:53;;;;;;;14.55;5.30;;;;;;;;;;5081107;28;20551;-78
2022/08/11 08:42:22;;;;;;;13.27;5.45;;;;;;;;;;5084564;28;20020;-78
2022/08/11 08:44:51;;;;;;;7.22;5.47;;;;;;;;;;5079404;28;20051;-78
2022/08/11 08:47:18;;;;;;;9.60;5.22;;;;;;;;;;5088874;28;20058;-78
2022/08/11 08:49:49;;;;;;;10.93;5.60;;;;;;;;;;5080154;28;20048;-78
2022/08/11 08:52:18;;;;;;;9.35;5.43;;;;;;;;;;5079365;28;20033;-78
2022/08/11 08:54:45;;;;;;;13.65;6.38;;;;;;;;;;5087660;28;20039;-78
2022/08/11 08:57:12;;;;;;;8.57;5.15;;;;;;;;;;5075934;28;20473;-78
2022/08/11 08:59:44;;;;;;;13.07;6.03;;;;;;;;;;5074314;28;20028;-78
2022/08/11 09:02:13;;;;;;;9.50;5.60;;;;;;;;;;5080929;28;20127;-79
2022/08/11 09:04:41;;;;;;;10.07;5.15;;;;;;;;;;5088302;28;20086;-78
2022/08/11 09:07:11;;;;;;;12.52;4.65;;;;;;;;;;5077977;28;20020;-79
2022/08/11 09:09:40;;;;;;;12.90;5.18;;;;;;;;;;5074440;28;20047;-79
2022/08/11 09:12:07;;;;;;;8.43;4.68;;;;;;;;;;5086230;28;20032;-78
2022/08/11 09:17:19;;;;;;;8.18;5.05;;;;;;;;;;5082731;28;20077;-78
2022/08/11 09:19:46;;;;;;;12.00;4.70;;;;;;;;;;5075959;28;20101;-78
2022/08/11 09:27:43;;;;;;;7.30;4.65;;;;;;;;;;5072991;28;20055;-78
2022/08/11 09:30:11;;;;;;;9.90;5.18;;;;;;;;;;5073828;28;20040;-78
2022/08/11 09:32:38;;;;;;;12.40;4.80;;;;;;;;;;5087660;28;20064;-78
2022/08/11 09:35:04;;;;;;;6.20;4.07;;;;;;;;;;5088743;28;20102;-78
2022/08/11 09:40:27;;;;;;;8.68;4.80;;;;;;;;;;5091317;28;20082;-78
2022/08/11 09:45:39;;;;;;;13.98;4.70;;;;;;;;;;5085234;28;20051;-78
2022/08/11 09:48:06;;;;;;;9.30;4.68;;;;;;;;;;5079737;28;20028;-78
2022/08/11 09:50:33;;;;;;;6.78;4.18;;;;;;;;;;5084164;28;20032;-78
2022/08/11 09:53:02;;;;;;;12.35;4.72;;;;;;;;;;5083221;28;20464;-78
2022/08/11 09:55:28;;;;;;;9.30;4.32;;;;;;;;;;5084178;28;20063;-78
2022/08/11 09:58:15;;;;;;;7.32;4.20;;;;;;;;;;5083466;28;20408;-77
2022/08/11 10:00:42;;;;;;;9.32;4.30;;;;;;;;;;5078898;28;20039;-78
2022/08/11 10:03:20;;;;;;;9.02;4.25;;;;;;;;;;5084687;28;20408;-78
2022/08/11 10:08:36;;;;;;;7.50;3.88;;;;;;;;;;5077539;28;20088;-78
2022/08/11 10:11:02;;;;;;;9.90;4.50;;;;;;;;;;5080601;28;20036;-78
2022/08/11 10:15:32;;;;;;;6.05;4.32;;;;;;;;;;5082083;28;20044;-78
2022/08/11 10:16:21;;;;;;;11.18;4.50;;;;;;;;;;5082747;28;20059;-78
2022/08/11 10:18:52;;;;;;;11.52;4.30;;;;;;;;;;5089298;28;20031;-78
2022/08/11 10:21:37;;;;;;;6.65;4.18;;;;;;;;;;5087470;28;20039;-77
2022/08/11 10:34:47;;;;;;;6.78;4.20;;;;;;;;;;5081159;28;20117;-78
2022/08/11 10:37:14;;;;;;;6.43;3.55;;;;;;;;;;5087611;28;20032;-78
2022/08/11 10:39:40;;;;;;;6.53;3.63;;;;;;;;;;5080828;28;20063;-78
2022/08/11 10:44:53;;;;;;;5.53;3.15;;;;;;;;;;5082046;28;20050;-77
2022/08/11 10:47:38;;;;;;;7.32;3.15;;;;;;;;;;5081428;28;20028;-77
2022/08/11 11:01:13;;;;;;;6.22;3.20;;;;;;;;;;5083079;28;20067;-78
2022/08/11 11:03:40;;;;;;;5.78;3.42;;;;;;;;;;5083581;28;20043;-78
2022/08/11 11:06:28;;;;;;;12.00;3.42;;;;;;;;;;5082097;28;20020;-78
2022/08/11 11:09:20;;;;;;;6.28;2.83;;;;;;;;;;5085861;28;20118;-78
2022/08/11 11:18:00;;;;;;;5.93;2.40;;;;;;;;;;5085419;28;20082;-78
2022/08/11 11:20:56;;;;;;;6.45;2.92;;;;;;;;;;5087866;28;20035;-78
2022/08/11 11:23:22;;;;;;;11.32;2.70;;;;;;;;;;5064595;28;20040;-78
2022/08/11 11:26:08;;;;;;;3.88;2.20;;;;;;;;;;5087585;28;20028;-77
2022/08/11 11:28:46;;;;;;;9.50;2.70;;;;;;;;;;5079424;28;20032;-78
2022/08/11 11:31:21;;;;;;;7.25;2.97;;;;;;;;;;5078519;28;20105;-78
2022/08/11 11:34:05;;;;;;;5.93;2.95;;;;;;;;;;5083536;28;20123;-78
2022/08/11 11:36:44;;;;;;;7.53;2.75;;;;;;;;;;5079388;28;20027;-78
2022/08/11 11:39:10;;;;;;;8.02;2.90;;;;;;;;;;5081089;28;20056;-78
2022/08/11 11:41:37;;;;;;;5.40;2.33;;;;;;;;;;5073756;28;20654;-78
2022/08/11 11:44:04;;;;;;;3.63;2.40;;;;;;;;;;5079920;28;20036;-78
2022/08/11 11:46:30;;;;;;;4.75;2.20;;;;;;;;;;5081826;28;20036;-78
2022/08/11 11:48:59;;;;;;;4.95;2.40;;;;;;;;;;5088092;28;20464;-78
2022/08/11 11:51:26;;;;;;;4.72;1.88;;;;;;;;;;5073105;28;20057;-78
2022/08/11 11:53:53;;;;;;;5.75;2.50;;;;;;;;;;5085181;28;20063;-78
2022/08/11 11:56:21;;;;;;;4.80;1.92;;;;;;;;;;5082128;28;20127;-78
2022/08/11 12:01:33;;;;;;;5.32;2.10;;;;;;;;;;5078242;28;20034;-78
2022/08/11 12:04:00;;;;;;;3.53;1.95;;;;;;;;;;5076900;28;20071;-78
2022/08/11 12:06:27;;;;;;;4.25;1.83;;;;;;;;;;5079796;28;20036;-78
2022/08/11 12:08:54;;;;;;;8.57;1.92;;;;;;;;;;5085073;28;20043;-78
2022/08/11 12:14:07;;;;;;;3.58;1.60;;;;;;;;;;5087248;28;20071;-78
2022/08/11 12:16:34;;;;;;;3.97;1.70;;;;;;;;;;5084088;28;20152;-78
2022/08/11 12:19:01;;;;;;;5.55;1.95;;;;;;;;;;5080187;28;20397;-78
2022/08/11 12:21:28;;;;;;;4.97;1.77;;;;;;;;;;5078343;28;20527;-78
2022/08/11 12:29:26;;;;;;;6.53;2.00;;;;;;;;;;5078269;28;20055;-78
2022/08/11 12:31:53;;;;;;;3.15;1.40;;;;;;;;;;5078654;28;20154;-78
2022/08/11 12:34:19;;;;;;;4.25;1.90;;;;;;;;;;5080626;28;20032;-78
2022/08/11 12:36:45;;;;;;;7.40;2.00;;;;;;;;;;5082384;28;20104;-78
2022/08/11 12:39:17;;;;;;;7.68;1.35;;;;;;;;;;5079400;28;20079;-78
2022/08/11 12:47:17;;;;;;;5.65;1.67;;;;;;;;;;5081072;28;20051;-78
2022/08/11 12:52:42;;;;;;;4.65;1.27;;;;;;;;;;5074790;28;20127;-78
2022/08/11 12:58:14;;;;;;;4.10;1.40;;;;;;;;;;5079977;28;20536;-78
2022/08/11 12:58:17;;;;;;;4.25;1.58;;;;;;;;;;5079779;28;20033;-79
2022/08/11 13:06:14;;;;;;;7.68;1.65;;;;;;;;;;5084910;28;20043;-78
2022/08/11 13:08:41;;;;;;;3.08;1.27;;;;;;;;;;5078606;28;20028;-77
2022/08/11 13:13:55;;;;;;;6.05;1.92;;;;;;;;;;5078215;28;20070;-80
2022/08/11 13:17:19;;;;;;;5.97;1.33;;;;;;;;;;5087066;28;20051;-78
2022/08/11 13:19:18;;;;;;;6.97;1.50;;;;;;;;;;5078815;28;20624;-78
2022/08/11 13:21:45;;;;;;;9.43;1.45;;;;;;;;;;5073871;28;20039;-78
2022/08/11 13:24:11;;;;;;;6.25;1.23;;;;;;;;;;5078759;28;20025;-78
2022/08/11 13:26:37;;;;;;;4.85;1.30;;;;;;;;;;5083926;28;20115;-78
2022/08/11 13:29:04;;;;;;;4.05;1.30;;;;;;;;;;5079297;28;20040;-78
2022/08/11 13:31:30;;;;;;;5.55;1.30;;;;;;;;;;5077082;28;22120;-78
2022/08/11 13:33:56;;;;;;;4.60;1.30;;;;;;;;;;5081745;28;20036;-78
2022/08/11 13:36:26;;;;;;;5.05;1.38;;;;;;;;;;5079556;28;20035;-77
2022/08/11 13:38:52;;;;;;;5.97;1.45;;;;;;;;;;5074961;28;20432;-78
2022/08/11 13:41:52;;;;;;;4.97;1.20;;;;;;;;;;5079483;28;20036;-78
2022/08/11 13:44:12;;;;;;;3.60;1.50;;;;;;;;;;5077516;28;20028;-78
2022/08/11 13:46:39;;;;;;;4.70;1.40;;;;;;;;;;5087370;28;20044;-78
2022/08/11 13:49:07;;;;;;;4.70;1.30;;;;;;;;;;5080146;28;20028;-78
2022/08/11 13:51:34;;;;;;;5.22;1.30;;;;;;;;;;5081693;28;20047;-77
2022/08/11 13:54:02;;;;;;;5.78;1.60;;;;;;;;;;5075063;28;20967;-78
2022/08/11 13:56:29;;;;;;;3.53;1.25;;;;;;;;;;5079601;28;20172;-78
2022/08/11 13:58:56;;;;;;;4.57;1.35;;;;;;;;;;5079460;28;20052;-78
2022/08/11 14:01:26;;;;;;;2.90;1.38;;;;;;;;;;5079557;28;20040;-78
2022/08/11 14:03:52;;;;;;;5.80;1.35;;;;;;;;;;5081814;28;20028;-79
2022/08/11 14:06:19;;;;;;;5.10;1.08;;;;;;;;;;5077641;28;20516;-78
2022/08/11 14:08:45;;;;;;;4.13;1.58;;;;;;;;;;5079413;28;20029;-78
2022/08/11 14:13:58;;;;;;;3.92;1.40;;;;;;;;;;5081773;28;20484;-78
2022/08/11 14:16:28;;;;;;;5.20;1.20;;;;;;;;;;5087956;28;20032;-78
2022/08/11 14:18:57;;;;;;;1.97;1.07;;;;;;;;;;5085417;28;20093;-79
2022/08/11 14:24:10;;;;;;;4.43;1.08;;;;;;;;;;5084060;28;20074;-78
2022/08/11 14:26:37;;;;;;;2.30;1.02;;;;;;;;;;5074650;28;20070;-78
2022/08/11 14:29:12;;;;;;;5.18;1.42;;;;;;;;;;5082821;28;20078;-78
2022/08/11 14:31:40;;;;;;;2.22;1.10;;;;;;;;;;5081534;28;20032;-78
2022/08/11 14:34:09;;;;;;;1.65;0.88;;;;;;;;;;5086695;28;20036;-78
2022/08/11 14:36:39;;;;;;;7.35;1.13;;;;;;;;;;5080604;28;20104;-78
2022/08/11 14:39:11;;;;;;;4.60;1.20;;;;;;;;;;5084852;28;20044;-78
2022/08/11 14:47:19;;;;;;;2.38;1.00;;;;;;;;;;5088495;28;20047;-78
2022/08/11 14:49:46;;;;;;;2.22;0.93;;;;;;;;;;5080072;28;20028;-78
2022/08/11 14:52:14;;;;;;;3.58;1.30;;;;;;;;;;5082134;28;20032;-78
2022/08/11 14:57:29;;;;;;;4.35;1.00;;;;;;;;;;5087427;28;20061;-78
2022/08/11 14:59:56;;;;;;;2.33;0.90;;;;;;;;;;5079203;28;20126;-78
2022/08/11 15:05:07;;;;;;;3.70;1.00;;;;;;;;;;5086486;28;20062;-78
2022/08/11 15:07:34;;;;;;;3.60;0.90;;;;;;;;;;5084630;28;21667;-78
2022/08/11 15:10:02;;;;;;;3.28;0.90;;;;;;;;;;5076494;28;20036;-77
2022/08/11 15:12:29;;;;;;;3.05;0.80;;;;;;;;;;5079636;28;20027;-77
2022/08/11 15:17:40;;;;;;;3.08;0.93;;;;;;;;;;5080469;28;20039;-78
2022/08/11 15:25:43;;;;;;;2.88;1.05;;;;;;;;;;5084381;28;20051;-77
2022/08/11 15:39:22;;;;;;;2.63;0.88;;;;;;;;;;5080467;28;20066;-78
2022/08/11 15:47:28;;;;;;;3.28;1.20;;;;;;;;;;5083011;28;20043;-77
2022/08/11 15:49:56;;;;;;;2.75;1.20;;;;;;;;;;5082228;28;20044;-78
2022/08/11 15:52:26;;;;;;;6.97;1.40;;;;;;;;;;5088500;28;20082;-77
2022/08/11 15:54:52;;;;;;;2.30;1.33;;;;;;;;;;5084076;28;20111;-77
2022/08/11 16:05:21;;;;;;;4.68;1.80;;;;;;;;;;5029386;28;20044;-78
2022/08/11 16:07:48;;;;;;;4.57;1.40;;;;;;;;;;5034067;28;20080;-77
2022/08/11 16:10:20;;;;;;;3.28;1.95;;;;;;;;;;5033615;28;20018;-78
2022/08/11 16:18:39;;;;;;;4.53;1.90;;;;;;;;;;5041164;28;20581;-78
2022/08/11 16:21:07;;;;;;;2.97;2.00;;;;;;;;;;5039233;28;20100;-78
2022/08/11 16:23:33;;;;;;;5.38;1.80;;;;;;;;;;5031591;28;20061;-78
2022/08/11 16:26:00;;;;;;;3.67;2.03;;;;;;;;;;5029049;28;20072;-78
2022/08/11 16:28:27;;;;;;;4.43;2.05;;;;;;;;;;5026517;28;20038;-77
2022/08/11 16:30:54;;;;;;;3.70;2.00;;;;;;;;;;5029489;28;20057;-77
2022/08/11 16:33:22;;;;;;;5.93;1.80;;;;;;;;;;5037319;28;20036;-77
2022/08/11 16:38:38;;;;;;;7.78;1.70;;;;;;;;;;5036898;28;20121;-77
2022/08/11 16:41:10;;;;;;;3.92;1.45;;;;;;;;;;5038000;28;20025;-78
2022/08/11 16:49:04;;;;;;;4.93;1.73;;;;;;;;;;5035273;28;20037;-78
2022/08/11 16:51:30;;;;;;;3.38;1.30;;;;;;;;;;5035408;28;20069;-78
2022/08/11 16:53:56;;;;;;;3.72;1.50;;;;;;;;;;5028814;28;20602;-78
2022/08/11 16:56:26;;;;;;;6.00;1.65;;;;;;;;;;5038116;28;20071;-78
2022/08/11 16:59:15;;;;;;;5.05;1.67;;;;;;;;;;5040332;28;20080;-78
2022/08/11 17:01:46;;;;;;;3.50;1.27;;;;;;;;;;5039308;28;20021;-78
2022/08/11 17:18:03;;;;;;;3.40;1.27;;;;;;;;;;5036104;28;20104;-78
2022/08/11 17:20:29;;;;;;;3.42;1.30;;;;;;;;;;5036003;28;20583;-78
2022/08/11 17:25:42;;;;;;;1.70;1.30;;;;;;;;;;5028984;28;20096;-78
2022/08/11 17:28:08;;;;;;;3.58;1.55;;;;;;;;;;5028475;28;20152;-78
2022/08/11 17:36:05;;;;;;;3.95;1.30;;;;;;;;;;5022127;28;20506;-77
2022/08/11 17:38:32;;;;;;;2.95;1.52;;;;;;;;;;5027821;28;20041;-78
2022/08/11 17:49:19;;;;;;;5.30;1.70;;;;;;;;;;5034637;28;20044;-78
2022/08/11 18:00:02;;;;;;;3.90;1.90;;;;;;;;;;5031109;28;20060;-78
2022/08/11 18:05:20;;;;;;;9.60;5.40;;;;;;;;;;5034917;28;20397;-78
